Time;durP1;ratioP1;P1;durP2;ratioP2;P2;SDS_P1;SDS_P2;PMS_P1;PMS_P2;Temp;Humidity;BMP_temperature;BMP_pressure;BME280_temperature;BME280_humidity;BME280_pressure;Samples;Min_cycle;Max_cycle;Signal;HPM_P1;HPM_P2
2022/06/14 00:01:17;;;;;;;5.57;4.20;;;19.50;56.40;;;;;;5074622;28;20184;-84
2022/06/14 00:03:44;;;;;;;5.65;4.28;;;19.70;55.60;;;;;;5077729;28;20226;-85
2022/06/14 00:06:23;;;;;;;4.68;4.13;;;19.70;55.90;;;;;;5079453;28;20187;-83
2022/06/14 00:08:49;;;;;;;6.78;4.05;;;19.80;55.70;;;;;;5078341;28;20180;-83
2022/06/14 00:11:20;;;;;;;5.38;4.20;;;19.90;54.80;;;;;;5082884;28;20235;-83
2022/06/14 00:13:47;;;;;;;4.82;4.00;;;19.80;56.00;;;;;;5085632;28;20277;-85
2022/06/14 00:16:14;;;;;;;6.13;4.10;;;19.90;55.60;;;;;;5077444;28;20261;-84
2022/06/14 00:18:40;;;;;;;8.55;4.38;;;20.00;55.80;;;;;;5077628;28;20185;-83
2022/06/14 00:21:06;;;;;;;11.77;4.85;;;19.90;56.50;;;;;;5063706;28;20192;-83
2022/06/14 00:23:33;;;;;;;5.95;4.45;;;19.60;56.90;;;;;;5081321;28;20297;-84
2022/06/14 00:26:01;;;;;;;6.20;4.18;;;19.40;58.40;;;;;;5081813;28;20211;-84
2022/06/14 00:28:30;;;;;;;5.85;4.20;;;19.50;58.20;;;;;;5077078;28;20230;-84
2022/06/14 00:31:03;;;;;;;6.57;4.20;;;19.50;57.40;;;;;;5076996;28;20296;-84
2022/06/14 00:33:29;;;;;;;5.05;4.13;;;19.50;57.00;;;;;;5078615;28;20220;-83
2022/06/14 00:36:04;;;;;;;5.38;4.25;;;19.50;57.40;;;;;;5080463;28;20435;-84
2022/06/14 00:38:30;;;;;;;5.70;4.43;;;19.50;56.70;;;;;;5073070;28;20184;-84
2022/06/14 00:40:59;;;;;;;7.43;4.80;;;19.30;57.20;;;;;;5077976;28;20630;-84
2022/06/14 00:43:26;;;;;;;5.55;4.07;;;19.30;57.70;;;;;;5059082;28;20224;-84
2022/06/14 00:45:52;;;;;;;4.65;4.22;;;19.30;57.60;;;;;;5077294;28;20191;-85
2022/06/14 00:48:37;;;;;;;5.30;4.28;;;19.30;58.00;;;;;;5079100;28;20214;-84
2022/06/14 00:51:08;;;;;;;5.03;3.90;;;19.30;57.90;;;;;;5073064;28;20291;-83
2022/06/14 00:54:09;;;;;;;4.90;4.30;;;19.20;58.10;;;;;;5076859;28;20274;-84
2022/06/14 00:57:19;;;;;;;4.70;3.90;;;19.10;58.50;;;;;;5070108;28;20184;-84
2022/06/14 00:59:49;;;;;;;6.28;4.47;;;19.20;58.10;;;;;;5037468;28;20229;-84
2022/06/14 01:02:21;;;;;;;5.75;4.50;;;19.20;58.20;;;;;;5059361;28;20214;-84
2022/06/14 01:04:48;;;;;;;5.05;4.20;;;19.00;58.30;;;;;;5079064;28;20217;-83
2022/06/14 01:07:19;;;;;;;4.80;4.40;;;18.60;60.00;;;;;;5079764;28;20757;-84
2022/06/14 01:10:05;;;;;;;5.90;4.18;;;18.40;60.20;;;;;;5085128;28;20224;-83
2022/06/14 01:12:35;;;;;;;4.90;4.18;;;18.30;61.30;;;;;;5075096;28;20186;-83
2022/06/14 01:15:13;;;;;;;6.22;4.38;;;18.20;61.60;;;;;;5060725;28;20218;-83
2022/06/14 01:17:43;;;;;;;5.43;4.80;;;18.30;61.70;;;;;;5072909;28;20175;-84
2022/06/14 01:20:16;;;;;;;4.60;4.20;;;18.30;61.80;;;;;;5057663;28;20190;-83
2022/06/14 01:22:42;;;;;;;5.00;4.47;;;18.40;60.80;;;;;;5078040;28;20282;-83
2022/06/14 01:25:09;;;;;;;5.38;4.35;;;18.50;60.20;;;;;;5078137;28;20183;-83
2022/06/14 01:27:38;;;;;;;6.50;4.65;;;18.60;60.30;;;;;;5058179;28;20320;-83
2022/06/14 01:30:22;;;;;;;4.60;4.15;;;18.60;60.20;;;;;;5078383;28;20218;-84
2022/06/14 01:32:58;;;;;;;4.20;3.80;;;18.50;60.00;;;;;;5074180;28;20217;-83
2022/06/14 01:35:28;;;;;;;5.28;3.97;;;18.40;61.00;;;;;;5075280;28;20212;-82
2022/06/14 01:37:57;;;;;;;6.05;4.15;;;18.10;62.30;;;;;;5074243;28;20198;-83
2022/06/14 01:40:50;;;;;;;4.78;4.28;;;17.90;63.20;;;;;;5076416;28;20703;-82
2022/06/14 01:43:34;;;;;;;4.57;4.18;;;17.80;63.70;;;;;;5071029;28;20205;-83
2022/06/14 01:46:23;;;;;;;4.47;4.07;;;17.90;63.20;;;;;;5068947;28;20253;-84
2022/06/14 01:48:49;;;;;;;4.78;4.32;;;18.00;62.80;;;;;;5072549;28;20211;-83
2022/06/14 01:51:52;;;;;;;5.60;4.50;;;17.90;62.90;;;;;;5079783;28;20605;-83
2022/06/14 01:54:21;;;;;;;4.47;4.00;;;17.90;63.30;;;;;;5076282;28;20210;-84
2022/06/14 01:57:08;;;;;;;4.88;4.13;;;17.90;63.30;;;;;;5067799;28;20178;-83
2022/06/14 01:59:46;;;;;;;4.78;4.20;;;17.80;63.90;;;;;;5079231;28;20673;-83
2022/06/14 02:02:26;;;;;;;5.55;4.10;;;17.80;64.00;;;;;;5071452;28;20252;-82
2022/06/14 02:04:57;;;;;;;5.05;3.95;;;17.90;63.40;;;;;;5073591;28;20244;-83
2022/06/14 02:07:35;;;;;;;4.18;3.72;;;18.00;62.90;;;;;;5071803;28;20266;-83
2022/06/14 02:10:27;;;;;;;4.93;4.10;;;17.90;63.10;;;;;;5077561;28;20203;-83
2022/06/14 02:13:14;;;;;;;5.20;4.40;;;17.90;63.10;;;;;;5068917;28;20240;-83
2022/06/14 02:15:52;;;;;;;4.78;3.88;;;17.80;63.30;;;;;;5069103;28;20186;-82
2022/06/14 02:18:25;;;;;;;4.60;4.20;;;17.80;63.20;;;;;;5078734;28;20673;-82
2022/06/14 02:21:01;;;;;;;4.53;4.13;;;17.80;62.80;;;;;;5078374;28;20228;-83
2022/06/14 02:23:32;;;;;;;7.30;4.30;;;17.90;63.30;;;;;;5076061;28;20708;-83
2022/06/14 02:26:05;;;;;;;5.28;4.20;;;17.80;63.20;;;;;;5077480;28;20187;-83
2022/06/14 02:28:48;;;;;;;4.60;4.15;;;17.90;63.20;;;;;;5073315;28;20252;-83
2022/06/14 02:31:28;;;;;;;4.93;4.40;;;17.90;62.60;;;;;;5085432;28;20203;-82
2022/06/14 02:34:08;;;;;;;5.25;4.22;;;17.90;63.10;;;;;;5081342;28;20242;-82
2022/06/14 02:36:44;;;;;;;4.55;4.15;;;17.90;62.80;;;;;;5077114;28;20187;-83
2022/06/14 02:39:16;;;;;;;4.72;4.07;;;17.90;62.80;;;;;;5078074;28;20202;-83
2022/06/14 02:41:54;;;;;;;4.40;4.00;;;17.90;63.00;;;;;;5078689;28;20184;-83
2022/06/14 02:44:23;;;;;;;4.63;4.22;;;17.90;62.70;;;;;;5080587;28;20618;-83
2022/06/14 02:47:03;;;;;;;4.50;4.05;;;17.90;62.20;;;;;;5077908;28;20179;-83
2022/06/14 02:49:36;;;;;;;4.90;4.05;;;18.00;62.30;;;;;;5072925;28;20183;-82
2022/06/14 02:52:11;;;;;;;7.22;4.40;;;17.90;62.30;;;;;;5077227;28;20209;-83
2022/06/14 02:54:47;;;;;;;5.47;4.10;;;17.40;64.40;;;;;;5078581;28;20264;-83
2022/06/14 02:57:35;;;;;;;6.57;4.73;;;16.90;66.80;;;;;;5082288;28;20678;-82
2022/06/14 03:00:10;;;;;;;4.63;4.10;;;16.50;69.00;;;;;;5081161;28;20629;-82
2022/06/14 03:02:44;;;;;;;5.37;4.83;;;16.30;70.50;;;;;;5082916;28;20210;-83
2022/06/14 03:05:18;;;;;;;5.73;4.73;;;16.20;70.50;;;;;;5080068;28;20214;-82
2022/06/14 03:07:58;;;;;;;5.97;4.70;;;16.10;71.50;;;;;;5077585;28;20275;-83
2022/06/14 03:10:34;;;;;;;5.73;4.77;;;15.90;72.60;;;;;;5078189;28;20207;-82
2022/06/14 03:13:12;;;;;;;5.43;4.73;;;16.00;70.90;;;;;;5081657;28;20218;-82
2022/06/14 03:15:52;;;;;;;6.07;4.17;;;16.20;70.30;;;;;;5075380;28;20182;-82
2022/06/14 03:19:02;;;;;;;6.60;4.70;;;16.10;69.90;;;;;;5063386;28;20585;-82
2022/06/14 03:21:39;;;;;;;6.57;4.57;;;16.10;68.30;;;;;;5068325;28;20208;-82
2022/06/14 03:24:15;;;;;;;8.77;4.97;;;16.00;69.10;;;;;;5084155;28;20211;-83
2022/06/14 03:27:12;;;;;;;5.07;4.50;;;15.90;68.60;;;;;;5076401;28;20172;-83
2022/06/14 03:29:51;;;;;;;5.60;4.50;;;16.00;68.90;;;;;;5075125;28;20223;-82
2022/06/14 03:32:23;;;;;;;8.57;4.30;;;16.00;67.00;;;;;;5079402;28;20191;-82
2022/06/14 03:34:59;;;;;;;5.73;4.33;;;15.90;67.20;;;;;;5078996;28;20236;-83
2022/06/14 03:37:25;;;;;;;5.10;4.60;;;16.00;67.00;;;;;;5074690;28;20187;-82
2022/06/14 03:39:57;;;;;;;5.93;4.27;;;16.10;66.50;;;;;;5070303;28;20537;-82
2022/06/14 03:42:23;;;;;;;6.00;4.10;;;16.20;66.20;;;;;;5079658;28;20218;-82
2022/06/14 03:44:49;;;;;;;6.53;4.80;;;16.20;65.60;;;;;;5080400;28;20216;-82
2022/06/14 03:47:20;;;;;;;6.33;4.37;;;16.40;65.80;;;;;;5078659;28;20227;-83
2022/06/14 03:49:50;;;;;;;5.37;4.33;;;16.60;64.90;;;;;;5076642;28;20212;-83
2022/06/14 03:52:22;;;;;;;5.30;4.10;;;16.70;64.50;;;;;;5077968;28;20186;-83
2022/06/14 03:54:56;;;;;;;6.90;4.53;;;16.80;64.20;;;;;;5077134;28;20329;-83
2022/06/14 03:57:40;;;;;;;5.67;4.33;;;16.90;64.90;;;;;;5078418;28;20191;-83
2022/06/14 04:00:29;;;;;;;6.23;4.33;;;16.80;65.50;;;;;;5078191;28;20198;-83
2022/06/14 04:03:22;;;;;;;8.63;5.37;;;16.70;66.80;;;;;;5077134;28;20691;-83
2022/06/14 04:06:09;;;;;;;7.40;4.80;;;16.60;66.60;;;;;;5078072;28;20188;-85
2022/06/14 04:08:56;;;;;;;5.30;4.17;;;16.50;68.10;;;;;;5081963;28;20282;-83
2022/06/14 04:11:46;;;;;;;4.57;4.07;;;16.50;68.30;;;;;;5079075;28;20824;-83
2022/06/14 04:14:38;;;;;;;4.87;4.23;;;16.60;68.80;;;;;;5076463;28;20245;-83
2022/06/14 04:17:22;;;;;;;4.73;4.27;;;16.60;68.80;;;;;;5076469;28;20208;-84
2022/06/14 04:19:56;;;;;;;10.23;4.60;;;16.70;67.90;;;;;;5074367;28;20196;-83
2022/06/14 04:22:41;;;;;;;6.20;4.50;;;16.90;67.00;;;;;;5083729;28;20194;-84
2022/06/14 04:25:23;;;;;;;4.37;4.00;;;17.00;67.00;;;;;;5077238;28;20239;-83
2022/06/14 04:27:53;;;;;;;5.00;4.60;;;16.70;68.60;;;;;;5074022;28;20269;-83
2022/06/14 04:30:28;;;;;;;5.13;4.63;;;16.50;70.20;;;;;;5081398;28;20216;-83
2022/06/14 04:33:07;;;;;;;5.23;4.70;;;16.40;71.00;;;;;;5071574;28;20518;-83
2022/06/14 04:35:37;;;;;;;6.80;4.10;;;16.40;71.00;;;;;;5076389;28;20235;-83
2022/06/14 04:38:10;;;;;;;5.20;4.43;;;16.20;71.30;;;;;;5079121;28;20184;-83
2022/06/14 04:40:48;;;;;;;6.37;4.10;;;16.30;69.40;;;;;;5074999;28;20187;-84
2022/06/14 04:43:19;;;;;;;5.50;4.50;;;16.30;69.00;;;;;;5077163;28;20658;-83
2022/06/14 04:46:20;;;;;;;5.03;4.40;;;16.40;70.10;;;;;;5076604;28;20205;-83
2022/06/14 04:49:11;;;;;;;7.47;4.90;;;16.40;68.00;;;;;;5062219;28;20212;-83
2022/06/14 04:51:45;;;;;;;7.10;4.87;;;16.50;68.40;;;;;;5079652;28;20246;-83
2022/06/14 04:54:29;;;;;;;10.53;4.93;;;16.60;66.50;;;;;;5080345;28;20219;-84
2022/06/14 04:57:03;;;;;;;6.00;4.30;;;16.70;66.80;;;;;;5077928;28;20247;-83
2022/06/14 04:59:37;;;;;;;6.10;4.63;;;16.80;64.80;;;;;;5073539;28;20720;-83
2022/06/14 05:02:21;;;;;;;4.50;4.10;;;16.80;65.00;;;;;;5091989;28;20187;-83
2022/06/14 05:05:14;;;;;;;7.90;4.20;;;16.90;65.10;;;;;;5092954;28;20580;-83
2022/06/14 05:08:00;;;;;;;5.10;4.57;;;17.00;65.20;;;;;;5094099;28;20178;-85
2022/06/14 05:10:31;;;;;;;5.37;4.33;;;17.00;65.30;;;;;;5095558;28;20197;-83
2022/06/14 05:13:02;;;;;;;6.10;4.20;;;17.00;65.10;;;;;;5095858;28;20204;-83
2022/06/14 05:15:28;;;;;;;5.63;4.43;;;16.90;65.30;;;;;;5080424;28;20197;-82
2022/06/14 05:18:12;;;;;;;5.50;4.23;;;16.80;64.90;;;;;;5099738;28;20257;-82
2022/06/14 05:20:48;;;;;;;8.17;5.17;;;16.90;65.50;;;;;;5099031;28;20203;-82
2022/06/14 05:23:21;;;;;;;7.03;4.87;;;16.80;65.50;;;;;;5096828;28;20246;-82
2022/06/14 05:26:12;;;;;;;7.77;4.90;;;16.80;65.20;;;;;;5095118;28;20186;-83
2022/06/14 05:28:49;;;;;;;5.37;4.53;;;16.70;66.10;;;;;;5093509;28;20265;-83
2022/06/14 05:31:29;;;;;;;6.00;4.70;;;16.60;66.40;;;;;;5095304;28;20279;-83
2022/06/14 05:34:22;;;;;;;5.47;4.43;;;16.70;66.90;;;;;;5096398;28;20202;-83
2022/06/14 05:36:57;;;;;;;6.60;4.97;;;16.90;66.60;;;;;;5094356;28;20199;-83
2022/06/14 05:40:14;;;;;;;8.47;4.90;;;16.90;65.40;;;;;;5097023;28;20171;-84
2022/06/14 05:42:50;;;;;;;6.37;5.07;;;17.10;64.30;;;;;;5091186;28;20261;-83
2022/06/14 05:45:21;;;;;;;8.63;5.53;;;17.10;63.00;;;;;;5100798;28;20200;-84
2022/06/14 05:47:59;;;;;;;6.30;4.97;;;16.90;62.70;;;;;;5101391;28;20179;-85
2022/06/14 05:50:30;;;;;;;8.57;4.57;;;17.00;63.00;;;;;;5083726;28;20207;-83
2022/06/14 05:52:58;;;;;;;6.87;5.27;;;17.00;62.60;;;;;;5099402;28;20205;-84
2022/06/14 05:55:29;;;;;;;7.50;5.30;;;17.10;62.20;;;;;;5101113;28;20187;-84
2022/06/14 05:58:05;;;;;;;5.83;4.60;;;17.10;62.60;;;;;;5099889;28;20187;-84
2022/06/14 06:00:49;;;;;;;6.00;5.10;;;17.10;63.10;;;;;;5098856;28;20200;-84
2022/06/14 06:03:38;;;;;;;5.37;4.83;;;17.20;62.00;;;;;;5101327;28;20223;-83
2022/06/14 06:06:11;;;;;;;7.37;5.13;;;17.10;62.80;;;;;;5097735;28;20240;-83
2022/06/14 06:08:51;;;;;;;6.33;5.07;;;17.10;63.30;;;;;;5097866;28;20190;-84
2022/06/14 06:11:33;;;;;;;7.30;4.33;;;17.20;63.40;;;;;;5084779;28;20210;-84
2022/06/14 06:14:08;;;;;;;5.93;5.03;;;17.40;62.20;;;;;;5101387;28;20242;-84
2022/06/14 06:19:22;;;;;;;7.60;5.20;;;17.40;63.00;;;;;;5099721;28;20199;-84
2022/06/14 06:21:54;;;;;;;8.53;4.60;;;17.40;60.90;;;;;;5100851;28;20186;-84
2022/06/14 06:24:25;;;;;;;8.13;4.53;;;17.60;60.10;;;;;;5099439;28;20235;-84
2022/06/14 06:26:59;;;;;;;7.23;5.43;;;17.70;61.10;;;;;;5098218;28;20642;-84
2022/06/14 06:29:34;;;;;;;8.80;5.20;;;17.80;60.30;;;;;;5106914;28;20187;-83
2022/06/14 06:32:01;;;;;;;6.17;5.40;;;17.80;60.60;;;;;;5105315;28;20178;-84
2022/06/14 06:34:27;;;;;;;5.23;4.47;;;17.90;60.70;;;;;;5103835;28;20215;-84
2022/06/14 06:37:06;;;;;;;5.47;4.17;;;18.00;60.60;;;;;;5103460;28;20562;-85
2022/06/14 06:39:41;;;;;;;6.50;4.60;;;18.10;59.20;;;;;;5105016;28;20243;-83
2022/06/14 06:42:28;;;;;;;6.30;4.57;;;18.20;58.10;;;;;;5102375;28;20194;-84
2022/06/14 06:45:04;;;;;;;5.33;4.77;;;18.20;58.00;;;;;;5106357;28;20199;-84
2022/06/14 06:47:38;;;;;;;4.43;4.03;;;18.20;57.80;;;;;;5105581;28;20202;-83
2022/06/14 06:50:15;;;;;;;8.60;4.47;;;18.30;57.80;;;;;;5105287;28;20339;-84
2022/06/14 06:53:06;;;;;;;6.63;4.47;;;18.50;57.40;;;;;;5086731;28;20222;-83
2022/06/14 06:55:50;;;;;;;5.20;4.20;;;18.50;56.90;;;;;;5103986;28;20273;-83
2022/06/14 06:58:47;;;;;;;6.55;4.60;;;18.70;56.50;;;;;;5104603;28;20175;-84
2022/06/14 07:01:31;;;;;;;7.05;4.13;;;18.70;57.10;;;;;;5102532;28;20197;-83
2022/06/14 07:04:05;;;;;;;5.60;4.10;;;18.80;55.30;;;;;;5104919;28;20205;-83
2022/06/14 07:06:56;;;;;;;5.88;4.38;;;18.80;55.80;;;;;;5106055;28;20171;-83
2022/06/14 07:09:27;;;;;;;5.05;3.92;;;18.80;55.40;;;;;;5102210;28;20189;-84
2022/06/14 07:12:01;;;;;;;5.53;4.50;;;18.90;55.10;;;;;;5102960;28;20188;-84
2022/06/14 07:14:37;;;;;;;8.30;4.47;;;18.80;54.70;;;;;;5099030;28;20209;-84
2022/06/14 07:17:10;;;;;;;4.38;3.97;;;18.90;55.30;;;;;;5097904;28;20182;-83
2022/06/14 07:19:39;;;;;;;6.70;4.90;;;19.20;54.10;;;;;;5099627;28;20177;-83
2022/06/14 07:22:17;;;;;;;7.72;4.63;;;19.20;54.60;;;;;;5098026;28;20186;-84
2022/06/14 07:25:16;;;;;;;6.93;4.57;;;19.30;53.90;;;;;;5098214;28;20711;-83
2022/06/14 07:27:52;;;;;;;5.63;4.30;;;19.60;53.40;;;;;;5082244;28;20682;-83
2022/06/14 07:30:24;;;;;;;4.93;4.45;;;19.80;52.70;;;;;;5104644;28;20202;-84
2022/06/14 07:32:55;;;;;;;6.95;4.65;;;19.80;53.60;;;;;;5099417;28;20277;-84
2022/06/14 07:35:31;;;;;;;6.68;4.28;;;19.80;52.20;;;;;;5100209;28;20198;-85
2022/06/14 07:38:03;;;;;;;6.85;4.47;;;19.90;52.80;;;;;;5104202;28;20552;-84
2022/06/14 07:40:35;;;;;;;5.75;4.43;;;20.00;52.60;;;;;;5104150;28;20649;-84
2022/06/14 07:43:23;;;;;;;7.75;4.53;;;19.90;53.10;;;;;;5100796;28;20605;-84
2022/06/14 07:45:50;;;;;;;6.93;4.32;;;20.10;52.80;;;;;;5091066;28;20199;-84
2022/06/14 07:48:28;;;;;;;4.85;4.30;;;20.30;52.80;;;;;;5099181;28;20195;-84
2022/06/14 07:51:19;;;;;;;7.30;4.55;;;20.50;52.60;;;;;;5100434;28;20210;-84
2022/06/14 07:54:09;;;;;;;5.75;4.43;;;20.70;50.80;;;;;;5099714;28;20243;-84
2022/06/14 07:56:50;;;;;;;6.18;4.40;;;20.80;50.40;;;;;;5098944;28;20662;-84
2022/06/14 07:59:20;;;;;;;10.70;5.20;;;21.00;49.50;;;;;;5096769;28;20194;-84
2022/06/14 08:02:05;;;;;;;7.80;4.65;;;21.00;49.30;;;;;;5102185;28;20193;-84
2022/06/14 08:05:00;;;;;;;5.88;4.53;;;21.20;49.50;;;;;;5100230;28;20267;-84
2022/06/14 08:07:28;;;;;;;6.05;4.70;;;21.30;48.90;;;;;;5074091;28;20193;-84
2022/06/14 08:10:02;;;;;;;6.25;4.28;;;21.50;49.70;;;;;;5100642;28;20209;-84
2022/06/14 08:13:03;;;;;;;6.47;4.53;;;21.60;47.70;;;;;;5100578;28;20177;-84
2022/06/14 08:15:55;;;;;;;7.70;4.38;;;21.70;48.40;;;;;;5089184;28;20318;-84
2022/06/14 08:18:47;;;;;;;11.45;5.68;;;21.90;47.70;;;;;;5100065;28;20259;-84
2022/06/14 08:21:35;;;;;;;7.60;4.68;;;22.00;48.10;;;;;;5100982;28;20192;-84
2022/06/14 08:24:20;;;;;;;7.35;4.45;;;22.20;47.10;;;;;;5097360;28;20208;-83
2022/06/14 08:27:03;;;;;;;7.30;4.63;;;22.00;45.90;;;;;;5097345;28;20181;-84
2022/06/14 08:29:35;;;;;;;6.30;4.22;;;22.10;45.90;;;;;;5080871;28;20184;-85
2022/06/14 08:32:15;;;;;;;7.53;4.50;;;22.30;44.70;;;;;;5101150;28;20178;-84
2022/06/14 08:35:12;;;;;;;7.68;4.82;;;22.20;45.60;;;;;;5082115;28;20176;-84
2022/06/14 08:38:17;;;;;;;4.97;4.45;;;22.40;46.00;;;;;;5100269;28;20201;-84
2022/06/14 08:41:03;;;;;;;6.78;5.10;;;22.80;44.10;;;;;;5101007;28;20186;-84
2022/06/14 08:43:50;;;;;;;7.15;4.78;;;23.00;41.90;;;;;;5100841;28;20238;-84
2022/06/14 08:46:19;;;;;;;8.15;4.72;;;23.10;42.40;;;;;;5100139;28;20251;-84
2022/06/14 08:49:08;;;;;;;5.47;4.95;;;23.40;42.00;;;;;;5101429;28;20269;-84
2022/06/14 08:51:58;;;;;;;5.60;5.05;;;23.30;40.50;;;;;;5098252;28;20437;-84
2022/06/14 08:54:36;;;;;;;5.95;4.75;;;23.40;40.90;;;;;;5097683;28;20700;-84
2022/06/14 08:57:13;;;;;;;7.30;5.38;;;23.50;41.60;;;;;;5094367;28;20191;-84
2022/06/14 09:00:04;;;;;;;7.40;4.85;;;23.50;42.40;;;;;;5099674;28;20187;-84
2022/06/14 09:02:33;;;;;;;7.50;5.22;;;23.70;42.50;;;;;;5099676;28;20174;-84
2022/06/14 09:05:10;;;;;;;4.82;4.35;;;23.70;41.90;;;;;;5097990;28;20199;-85
2022/06/14 09:08:06;;;;;;;9.35;5.13;;;23.80;40.80;;;;;;5098603;28;20187;-84
2022/06/14 09:10:57;;;;;;;5.20;4.70;;;24.00;40.60;;;;;;5098780;28;20237;-84
2022/06/14 09:13:32;;;;;;;6.30;4.60;;;24.00;41.20;;;;;;5073057;28;20276;-84
2022/06/14 09:16:22;;;;;;;5.75;4.55;;;24.00;40.50;;;;;;5098321;28;20197;-84
2022/06/14 09:19:18;;;;;;;6.03;4.78;;;24.00;40.10;;;;;;5099985;28;20170;-84
2022/06/14 09:22:02;;;;;;;7.25;5.00;;;24.20;40.20;;;;;;5098456;28;20440;-84
2022/06/14 09:24:37;;;;;;;14.63;5.45;;;24.30;39.90;;;;;;5098283;28;20268;-84
2022/06/14 09:27:24;;;;;;;5.93;4.80;;;24.30;40.00;;;;;;5094683;28;20179;-84
2022/06/14 09:29:53;;;;;;;9.38;5.35;;;24.30;40.40;;;;;;5097506;28;20202;-84
2022/06/14 09:32:29;;;;;;;8.13;5.18;;;24.30;39.60;;;;;;5098642;28;20176;-84
2022/06/14 09:34:54;;;;;;;6.25;4.43;;;24.30;40.80;;;;;;5097018;28;20590;-84
2022/06/14 09:37:35;;;;;;;5.40;4.88;;;24.60;40.40;;;;;;5093741;28;20759;-85
2022/06/14 09:40:07;;;;;;;7.20;5.00;;;24.80;38.20;;;;;;5091157;28;20175;-84
2022/06/14 09:42:48;;;;;;;5.65;5.05;;;25.00;37.60;;;;;;5091520;28;20209;-84
2022/06/14 09:45:42;;;;;;;5.43;4.93;;;25.20;36.80;;;;;;5089410;28;20206;-84
2022/06/14 09:48:49;;;;;;;7.88;5.35;;;25.30;37.60;;;;;;5090457;28;20181;-84
2022/06/14 09:51:22;;;;;;;7.75;5.22;;;25.20;37.30;;;;;;5088477;28;20566;-86
2022/06/14 09:54:30;;;;;;;6.30;4.63;;;25.20;38.40;;;;;;5091588;28;20190;-83
2022/06/14 09:57:07;;;;;;;5.60;5.05;;;25.50;38.00;;;;;;5093860;28;20171;-83
2022/06/14 09:59:45;;;;;;;6.22;4.93;;;25.80;36.40;;;;;;5094649;28;20667;-83
2022/06/14 10:02:22;;;;;;;7.13;5.70;;;26.10;35.30;;;;;;5094836;28;20205;-84
2022/06/14 10:05:23;;;;;;;5.93;5.00;;;26.10;36.00;;;;;;5072485;28;20204;-84
2022/06/14 10:08:03;;;;;;;7.15;5.32;;;25.90;35.50;;;;;;5054127;28;20309;-84
2022/06/14 10:10:43;;;;;;;7.22;5.00;;;26.00;35.80;;;;;;5091682;28;20248;-84
2022/06/14 10:13:23;;;;;;;6.65;5.35;;;25.90;35.70;;;;;;5076198;28;20206;-83
2022/06/14 10:16:25;;;;;;;8.77;5.18;;;25.80;35.90;;;;;;5094689;28;20174;-84
2022/06/14 10:19:12;;;;;;;5.30;4.80;;;26.10;35.50;;;;;;5096661;28;20185;-82
2022/06/14 10:22:03;;;;;;;10.43;5.70;;;26.30;35.70;;;;;;5097819;28;20179;-83
2022/06/14 10:24:51;;;;;;;7.05;5.15;;;26.70;33.80;;;;;;5094170;28;20209;-82
2022/06/14 10:28:28;;;;;;;7.25;4.82;;;26.70;33.80;;;;;;5091464;28;20210;-83
2022/06/14 10:31:01;;;;;;;6.22;4.55;;;26.70;34.10;;;;;;5001785;28;20258;-84
2022/06/14 10:33:58;;;;;;;6.20;4.72;;;26.80;33.10;;;;;;5002398;28;20197;-84
2022/06/14 10:37:02;;;;;;;6.20;4.20;;;27.00;33.90;;;;;;5082984;28;20191;-85
2022/06/14 10:40:01;;;;;;;5.78;5.20;;;27.40;33.30;;;;;;5089910;28;20187;-85
2022/06/14 10:42:50;;;;;;;6.22;5.22;;;27.60;33.20;;;;;;5090405;28;20182;-83
2022/06/14 10:45:42;;;;;;;8.35;4.88;;;27.90;31.10;;;;;;5088538;28;20226;-83
2022/06/14 10:48:40;;;;;;;7.10;5.13;;;27.60;31.90;;;;;;5089654;28;20269;-83
2022/06/14 10:51:36;;;;;;;5.65;5.15;;;27.90;31.80;;;;;;5058927;28;20305;-83
2022/06/14 10:54:29;;;;;;;6.35;4.88;;;28.00;31.70;;;;;;5092871;28;20195;-83
2022/06/14 10:57:07;;;;;;;5.93;5.32;;;27.60;31.80;;;;;;5092771;28;20194;-84
2022/06/14 10:59:42;;;;;;;7.07;4.70;;;27.70;32.20;;;;;;5094504;28;20246;-84
2022/06/14 11:02:44;;;;;;;5.25;4.75;;;27.60;33.30;;;;;;5095054;28;20174;-83
2022/06/14 11:05:39;;;;;;;6.43;5.28;;;27.90;31.80;;;;;;5095336;28;20554;-83
2022/06/14 11:08:08;;;;;;;8.40;5.47;;;28.10;32.60;;;;;;5094376;28;20241;-83
2022/06/14 11:10:36;;;;;;;7.57;4.93;;;28.30;31.30;;;;;;5097960;28;20294;-84
2022/06/14 11:13:29;;;;;;;8.27;4.70;;;28.60;30.90;;;;;;5096549;28;20193;-84
2022/06/14 11:16:10;;;;;;;7.78;5.50;;;28.60;30.70;;;;;;5094931;28;20178;-83
2022/06/14 11:18:54;;;;;;;5.28;4.85;;;28.50;30.50;;;;;;5098255;28;20250;-84
2022/06/14 11:21:23;;;;;;;8.40;5.00;;;28.40;31.50;;;;;;5097845;28;20666;-84
2022/06/14 11:24:01;;;;;;;5.70;4.72;;;28.60;30.00;;;;;;5097928;28;20207;-83
2022/06/14 11:26:40;;;;;;;6.03;5.03;;;28.20;31.30;;;;;;5095734;28;20228;-83
2022/06/14 11:29:12;;;;;;;8.90;4.93;;;28.60;30.70;;;;;;5098211;28;20199;-83
2022/06/14 11:31:56;;;;;;;6.72;5.25;;;28.40;30.20;;;;;;5097022;28;20211;-84
2022/06/14 11:34:37;;;;;;;8.40;5.25;;;28.30;31.20;;;;;;5076707;28;20204;-84
2022/06/14 11:37:34;;;;;;;6.60;5.00;;;28.70;30.60;;;;;;5096136;28;20182;-84
2022/06/14 11:40:12;;;;;;;7.40;4.93;;;29.00;30.00;;;;;;5095177;28;20171;-84
2022/06/14 11:42:47;;;;;;;7.15;4.90;;;29.10;29.60;;;;;;5096079;28;20598;-85
2022/06/14 11:45:28;;;;;;;6.28;4.72;;;29.40;29.10;;;;;;5095636;28;20214;-84
2022/06/14 11:48:17;;;;;;;5.07;4.50;;;29.80;28.40;;;;;;5097460;28;20187;-85
2022/06/14 11:50:58;;;;;;;6.38;4.85;;;30.10;28.90;;;;;;5097609;28;20187;-85
2022/06/14 11:53:49;;;;;;;5.60;4.65;;;30.30;27.80;;;;;;5096571;28;20195;-83
2022/06/14 11:56:22;;;;;;;6.28;5.13;;;30.40;27.30;;;;;;5078817;28;20193;-84
2022/06/14 11:59:16;;;;;;;5.40;4.90;;;30.10;28.10;;;;;;5097981;28;20190;-85
2022/06/14 12:01:47;;;;;;;5.03;4.55;;;30.00;28.00;;;;;;5094614;28;20179;-84
2022/06/14 12:04:45;;;;;;;5.03;4.45;;;29.60;28.60;;;;;;5096468;28;20222;-85
2022/06/14 12:07:24;;;;;;;7.88;5.55;;;30.10;28.20;;;;;;5073284;28;20272;-85
2022/06/14 12:09:59;;;;;;;5.80;5.25;;;30.40;27.50;;;;;;5106800;28;20699;-84
2022/06/14 12:12:45;;;;;;;5.40;4.90;;;30.40;27.40;;;;;;5104778;28;20239;-85
2022/06/14 12:15:41;;;;;;;8.05;5.20;;;30.20;28.10;;;;;;5104815;28;20200;-85
2022/06/14 12:18:11;;;;;;;5.07;4.60;;;30.60;26.80;;;;;;5099171;28;20235;-85
2022/06/14 12:21:01;;;;;;;6.20;4.50;;;30.90;26.50;;;;;;5097068;28;20190;-85
2022/06/14 12:23:37;;;;;;;5.20;4.70;;;31.20;26.20;;;;;;5102131;28;20199;-85
2022/06/14 12:29:16;;;;;;;5.13;4.63;;;31.30;26.00;;;;;;5100425;28;20291;-84
2022/06/14 12:31:45;;;;;;;5.05;4.53;;;30.80;27.00;;;;;;5090895;28;20697;-84
2022/06/14 12:34:22;;;;;;;6.50;4.97;;;30.90;27.00;;;;;;5097784;28;20241;-85
2022/06/14 12:37:00;;;;;;;5.85;5.22;;;30.20;27.70;;;;;;5100443;28;20204;-85
2022/06/14 12:39:37;;;;;;;5.65;4.55;;;30.70;27.40;;;;;;5103398;28;20191;-85
2022/06/14 12:42:36;;;;;;;6.93;4.82;;;31.40;26.70;;;;;;5103675;28;20182;-85
2022/06/14 12:45:12;;;;;;;5.20;4.70;;;31.30;26.40;;;;;;5101299;28;20258;-85
2022/06/14 12:48:10;;;;;;;8.90;5.05;;;31.10;26.50;;;;;;5099855;28;20189;-85
2022/06/14 12:50:43;;;;;;;6.47;4.97;;;31.50;26.20;;;;;;5103351;28;20262;-85
2022/06/14 12:53:33;;;;;;;5.97;5.30;;;31.80;25.70;;;;;;5101993;28;20202;-84
2022/06/14 12:56:29;;;;;;;5.18;4.63;;;32.20;26.00;;;;;;5101004;28;20178;-84
2022/06/14 12:59:16;;;;;;;5.25;4.75;;;32.10;25.60;;;;;;5089645;28;20195;-84
2022/06/14 13:02:11;;;;;;;5.20;4.80;;;31.40;26.60;;;;;;5101678;28;20179;-84
2022/06/14 13:04:46;;;;;;;5.22;4.68;;;31.40;26.80;;;;;;5100522;28;20256;-84
2022/06/14 13:08:11;;;;;;;6.03;4.90;;;32.20;26.20;;;;;;5102161;28;20190;-86
2022/06/14 13:10:46;;;;;;;4.75;4.35;;;32.40;25.30;;;;;;5101680;28;20201;-84
2022/06/14 13:13:26;;;;;;;6.72;4.90;;;32.90;24.60;;;;;;5098281;28;20202;-85
2022/06/14 13:16:13;;;;;;;5.45;4.60;;;32.30;25.60;;;;;;5101423;28;20198;-84
2022/06/14 13:18:47;;;;;;;8.20;4.57;;;32.50;24.90;;;;;;5100152;28;20179;-84
2022/06/14 13:21:31;;;;;;;4.82;4.32;;;32.40;25.00;;;;;;5099583;28;20202;-84
2022/06/14 13:24:23;;;;;;;8.45;5.00;;;31.90;25.20;;;;;;5102061;28;20199;-84
2022/06/14 13:27:19;;;;;;;5.80;4.55;;;31.80;26.20;;;;;;5088316;28;20692;-83
2022/06/14 13:30:05;;;;;;;5.63;4.70;;;31.90;25.80;;;;;;5106410;28;20195;-84
2022/06/14 13:32:39;;;;;;;5.55;4.97;;;32.40;24.90;;;;;;5104276;28;20199;-84
2022/06/14 13:35:26;;;;;;;6.72;4.93;;;32.80;24.50;;;;;;5100815;28;20677;-84
2022/06/14 13:38:27;;;;;;;5.85;5.25;;;32.60;25.30;;;;;;5099061;28;20173;-84
2022/06/14 13:41:08;;;;;;;5.35;4.93;;;32.50;25.20;;;;;;5089261;28;20194;-84
2022/06/14 13:43:55;;;;;;;7.25;4.97;;;32.50;25.40;;;;;;5082141;28;20223;-84
2022/06/14 13:46:39;;;;;;;5.28;4.78;;;32.90;24.90;;;;;;5097906;28;20186;-84
2022/06/14 13:49:19;;;;;;;5.07;4.55;;;33.00;24.70;;;;;;5099850;28;20178;-85
2022/06/14 13:52:09;;;;;;;6.10;5.50;;;33.60;24.70;;;;;;5100060;28;20199;-84
2022/06/14 13:55:25;;;;;;;6.70;5.05;;;33.70;24.20;;;;;;5100256;28;20198;-85
2022/06/14 13:58:00;;;;;;;6.43;5.22;;;33.10;24.30;;;;;;5095305;28;20191;-85
2022/06/14 14:00:40;;;;;;;5.80;5.05;;;33.10;24.30;;;;;;5104626;28;20194;-85